Time;durP1;ratioP1;P1;durP2;ratioP2;P2;SDS_P1;SDS_P2;PMS_P1;PMS_P2;Temp;Humidity;BMP_temperature;BMP_pressure;BME280_temperature;BME280_humidity;BME280_pressure;Samples;Min_cycle;Max_cycle;Signal;HPM_P1;HPM_P2
2023/03/28 00:00:29;;;;;;;21.30;3.00;;;2.10;99.90;;;;;;5047356;28;20401;-72
2023/03/28 00:02:55;;;;;;;12.27;2.75;;;2.10;99.90;;;;;;5065535;28;20039;-71
2023/03/28 00:05:22;;;;;;;16.67;2.35;;;2.10;99.90;;;;;;5048687;28;20070;-69
2023/03/28 00:07:52;;;;;;;12.00;2.63;;;2.10;99.90;;;;;;5048606;28;20122;-69
2023/03/28 00:10:18;;;;;;;15.63;2.63;;;2.00;99.90;;;;;;5065886;28;20041;-71
2023/03/28 00:12:44;;;;;;;14.00;2.33;;;2.10;99.90;;;;;;5065456;28;20036;-71
2023/03/28 00:15:10;;;;;;;13.13;2.55;;;2.10;99.90;;;;;;5046086;28;20050;-70
2023/03/28 00:17:36;;;;;;;16.80;2.28;;;2.10;99.90;;;;;;5064988;28;20461;-71
2023/03/28 00:20:03;;;;;;;11.15;2.22;;;2.10;99.90;;;;;;5048351;28;20044;-70
2023/03/28 00:22:30;;;;;;;15.45;2.38;;;2.10;99.90;;;;;;5048920;28;20036;-68
2023/03/28 00:24:57;;;;;;;15.63;2.42;;;2.10;99.90;;;;;;5064642;28;20053;-69
2023/03/28 00:27:24;;;;;;;15.88;2.63;;;2.10;99.90;;;;;;5066134;28;20694;-72
2023/03/28 00:29:51;;;;;;;13.85;1.92;;;2.10;99.90;;;;;;5047226;28;20048;-69
2023/03/28 00:32:17;;;;;;;13.32;2.03;;;2.10;99.90;;;;;;5065005;28;20090;-70
2023/03/28 00:34:42;;;;;;;22.58;2.50;;;2.10;99.90;;;;;;5072315;28;20848;-69
2023/03/28 00:37:09;;;;;;;14.10;2.28;;;2.10;99.90;;;;;;5089325;28;20059;-68
2023/03/28 00:39:36;;;;;;;12.65;2.40;;;2.10;99.90;;;;;;5070598;28;20130;-68
2023/03/28 00:42:02;;;;;;;19.38;3.30;;;2.10;99.90;;;;;;5088925;28;20073;-67
2023/03/28 00:44:52;;;;;;;15.80;2.38;;;2.10;99.90;;;;;;5063039;28;20048;-67
2023/03/28 00:47:29;;;;;;;20.30;2.35;;;2.10;99.90;;;;;;5052023;28;20395;-66
2023/03/28 00:50:04;;;;;;;17.52;2.55;;;2.00;99.90;;;;;;5069253;28;20044;-67
2023/03/28 00:52:42;;;;;;;9.73;1.95;;;1.90;99.90;;;;;;5069278;28;20036;-69
2023/03/28 00:55:14;;;;;;;11.68;2.45;;;1.80;99.90;;;;;;5082688;28;20226;-65
2023/03/28 00:57:41;;;;;;;12.10;2.60;;;1.70;99.90;;;;;;5071668;28;20063;-68
2023/03/28 01:00:11;;;;;;;15.93;2.72;;;1.70;99.90;;;;;;5065760;28;20503;-67
2023/03/28 01:02:44;;;;;;;20.35;2.85;;;1.60;99.90;;;;;;5051771;28;20061;-67
2023/03/28 01:05:12;;;;;;;14.35;2.83;;;1.60;99.90;;;;;;5051749;28;20041;-66
2023/03/28 01:07:44;;;;;;;17.20;2.30;;;1.60;99.90;;;;;;5068132;28;20781;-68
2023/03/28 01:10:11;;;;;;;13.20;2.67;;;1.60;99.90;;;;;;5062628;28;20068;-67
2023/03/28 01:12:39;;;;;;;20.30;2.40;;;1.60;99.90;;;;;;5051853;28;20048;-67
2023/03/28 01:15:05;;;;;;;15.45;2.30;;;1.60;99.90;;;;;;5037653;28;20040;-67
2023/03/28 01:17:31;;;;;;;17.25;2.92;;;1.50;99.90;;;;;;5086508;28;20083;-69
2023/03/28 01:20:25;;;;;;;15.88;2.58;;;1.40;99.90;;;;;;5068850;28;20072;-69
2023/03/28 01:23:16;;;;;;;12.13;2.67;;;1.40;99.90;;;;;;5051761;28;20036;-68
2023/03/28 01:26:00;;;;;;;10.70;2.80;;;1.40;99.90;;;;;;5067927;28;20048;-67
2023/03/28 01:28:40;;;;;;;16.20;2.47;;;1.30;99.90;;;;;;5068662;28;20036;-69
2023/03/28 01:31:32;;;;;;;15.73;2.33;;;1.20;99.90;;;;;;5066802;28;20123;-69
2023/03/28 01:34:42;;;;;;;13.90;2.58;;;1.20;99.90;;;;;;5068802;28;20040;-68
2023/03/28 01:37:34;;;;;;;17.17;2.78;;;1.20;99.90;;;;;;5051737;28;20597;-68
2023/03/28 01:39:59;;;;;;;14.30;2.63;;;1.20;99.90;;;;;;5028378;28;20053;-69
2023/03/28 01:42:53;;;;;;;14.50;2.30;;;1.20;99.90;;;;;;5051619;28;20399;-70
2023/03/28 01:45:27;;;;;;;15.55;2.63;;;1.20;99.90;;;;;;5064622;28;20048;-69
2023/03/28 01:48:05;;;;;;;15.75;2.60;;;1.20;99.90;;;;;;5066726;28;20044;-67
2023/03/28 01:51:10;;;;;;;14.57;2.38;;;1.20;99.90;;;;;;5051840;28;20036;-68
2023/03/28 01:53:54;;;;;;;14.82;2.55;;;1.20;99.90;;;;;;5013311;28;20460;-69
2023/03/28 01:56:29;;;;;;;17.38;2.85;;;1.20;99.90;;;;;;5028823;28;20052;-69
2023/03/28 01:59:00;;;;;;;15.68;3.28;;;1.20;99.90;;;;;;5070237;28;20052;-69
2023/03/28 02:01:58;;;;;;;19.52;2.65;;;1.20;99.90;;;;;;5083104;28;20040;-72
2023/03/28 02:04:25;;;;;;;19.23;3.15;;;1.20;99.90;;;;;;5027601;28;20052;-70
2023/03/28 02:06:54;;;;;;;16.80;2.20;;;1.20;99.90;;;;;;5067573;28;20091;-70
2023/03/28 02:09:23;;;;;;;16.63;2.58;;;1.20;99.90;;;;;;5067232;28;20127;-68
2023/03/28 02:11:52;;;;;;;15.25;2.58;;;1.20;99.90;;;;;;5067830;28;20395;-71
2023/03/28 02:14:23;;;;;;;15.52;2.30;;;1.20;99.90;;;;;;5051472;28;20089;-68
2023/03/28 02:16:53;;;;;;;13.20;2.20;;;1.20;99.90;;;;;;5066831;28;20037;-68
2023/03/28 02:19:23;;;;;;;17.40;2.55;;;1.20;99.90;;;;;;5065086;28;20040;-71
2023/03/28 02:22:21;;;;;;;15.32;2.33;;;1.20;99.90;;;;;;5088732;28;20044;-69
2023/03/28 02:24:50;;;;;;;19.33;2.35;;;1.30;99.90;;;;;;5053729;28;20044;-68
2023/03/28 02:27:18;;;;;;;17.80;2.72;;;1.20;99.90;;;;;;5087393;28;20059;-69
2023/03/28 02:29:44;;;;;;;14.02;2.05;;;1.20;99.90;;;;;;5083886;28;20036;-67
2023/03/28 02:32:10;;;;;;;16.25;2.38;;;1.20;99.90;;;;;;5087053;28;20044;-68
2023/03/28 02:34:36;;;;;;;21.17;2.83;;;1.20;99.90;;;;;;5068023;28;20040;-70
2023/03/28 02:37:20;;;;;;;20.08;3.03;;;1.20;99.90;;;;;;5050403;28;20107;-67
2023/03/28 02:40:06;;;;;;;15.85;2.45;;;1.20;99.90;;;;;;5077029;28;20067;-66
2023/03/28 02:43:29;;;;;;;19.90;2.55;;;1.20;99.90;;;;;;5087044;28;20124;-69
2023/03/28 02:46:20;;;;;;;15.77;3.25;;;1.10;99.90;;;;;;5006292;28;20053;-67
2023/03/28 02:49:16;;;;;;;13.93;3.25;;;1.10;99.90;;;;;;5041781;28;20053;-66
2023/03/28 02:52:24;;;;;;;15.50;2.80;;;1.10;99.90;;;;;;5073699;28;20060;-67
2023/03/28 02:55:07;;;;;;;25.38;4.07;;;1.10;99.90;;;;;;5061491;28;20076;-68
2023/03/28 02:57:45;;;;;;;17.38;3.22;;;1.10;99.90;;;;;;5066519;28;20080;-66
2023/03/28 03:00:17;;;;;;;22.23;2.92;;;1.00;99.90;;;;;;5048227;28;20051;-68
2023/03/28 03:02:48;;;;;;;17.98;2.55;;;1.00;99.90;;;;;;5065879;28;20125;-71
2023/03/28 03:05:14;;;;;;;20.05;2.72;;;1.00;99.90;;;;;;5066518;28;20044;-72
2023/03/28 03:07:41;;;;;;;15.52;2.88;;;1.00;99.90;;;;;;5050109;28;20055;-67
2023/03/28 03:10:09;;;;;;;19.95;3.40;;;0.90;99.90;;;;;;5049248;28;20044;-68
2023/03/28 03:12:35;;;;;;;12.60;3.05;;;0.90;99.90;;;;;;5066235;28;20447;-67
2023/03/28 03:15:02;;;;;;;19.95;2.80;;;0.90;99.90;;;;;;5077831;28;20559;-67
2023/03/28 03:17:29;;;;;;;15.00;2.53;;;0.90;99.90;;;;;;5084850;28;20573;-68
2023/03/28 03:19:55;;;;;;;19.08;3.28;;;0.90;99.90;;;;;;5075223;28;20600;-67
2023/03/28 03:22:22;;;;;;;23.50;3.20;;;0.90;99.90;;;;;;5086352;28;20054;-68
2023/03/28 03:24:49;;;;;;;12.45;2.60;;;0.90;99.90;;;;;;5070114;28;20047;-68
2023/03/28 03:27:19;;;;;;;24.90;2.60;;;0.90;99.90;;;;;;5049203;28;20606;-67
2023/03/28 03:29:47;;;;;;;13.20;2.10;;;0.90;99.90;;;;;;5074533;28;20055;-68
2023/03/28 03:32:14;;;;;;;22.05;3.10;;;0.90;99.90;;;;;;5061249;28;20071;-66
2023/03/28 03:34:40;;;;;;;18.63;2.83;;;0.90;99.90;;;;;;5065350;28;20079;-67
2023/03/28 03:37:08;;;;;;;17.48;2.70;;;1.00;99.90;;;;;;5061358;28;20040;-67
2023/03/28 03:39:35;;;;;;;29.45;3.53;;;0.90;99.90;;;;;;5063982;28;20083;-67
2023/03/28 03:42:01;;;;;;;17.02;2.75;;;0.90;99.90;;;;;;5067350;28;20503;-69
2023/03/28 03:44:27;;;;;;;14.27;2.15;;;0.90;99.90;;;;;;5053787;28;20505;-67
2023/03/28 03:46:53;;;;;;;20.55;3.70;;;0.90;99.90;;;;;;5067461;28;20433;-70
2023/03/28 03:49:19;;;;;;;19.85;3.03;;;0.90;99.90;;;;;;5068034;28;20048;-67
2023/03/28 03:51:44;;;;;;;18.20;2.83;;;0.90;99.90;;;;;;5086144;28;20627;-67
2023/03/28 03:54:10;;;;;;;23.75;3.30;;;0.90;99.90;;;;;;5079863;28;20411;-66
2023/03/28 03:56:37;;;;;;;13.77;2.50;;;0.90;99.90;;;;;;5048214;28;20422;-67
2023/03/28 03:59:03;;;;;;;11.05;2.60;;;0.90;99.90;;;;;;5051985;28;20080;-68
2023/03/28 04:01:30;;;;;;;12.63;2.45;;;0.90;99.90;;;;;;5084347;28;20044;-67
2023/03/28 04:03:56;;;;;;;19.83;3.15;;;0.80;99.90;;;;;;5056472;28;20075;-67
2023/03/28 04:06:22;;;;;;;13.07;2.67;;;0.80;99.90;;;;;;5048335;28;20102;-67
2023/03/28 04:08:48;;;;;;;20.08;2.95;;;0.80;99.90;;;;;;5065003;28;20123;-67
2023/03/28 04:11:16;;;;;;;19.30;2.72;;;0.70;99.90;;;;;;5048380;28;20495;-67
2023/03/28 04:13:42;;;;;;;12.30;2.72;;;0.70;99.90;;;;;;5048268;28;20052;-67
2023/03/28 04:16:08;;;;;;;22.63;2.55;;;0.70;99.90;;;;;;5063222;28;20041;-68
2023/03/28 04:18:34;;;;;;;16.58;2.70;;;0.60;99.90;;;;;;5048761;28;20051;-66
2023/03/28 04:21:01;;;;;;;18.75;2.97;;;0.60;99.90;;;;;;5060666;28;20442;-67
2023/03/28 04:23:27;;;;;;;22.75;4.13;;;0.60;99.90;;;;;;5073822;28;20040;-67
2023/03/28 04:25:56;;;;;;;20.17;2.78;;;0.60;99.90;;;;;;5048553;28;20075;-67
2023/03/28 04:28:26;;;;;;;16.20;2.53;;;0.50;99.90;;;;;;5065344;28;20044;-66
2023/03/28 04:30:59;;;;;;;17.48;2.78;;;0.50;99.90;;;;;;5062642;28;20045;-66
2023/03/28 04:33:32;;;;;;;19.58;4.03;;;0.50;99.90;;;;;;5065030;28;20044;-66
2023/03/28 04:36:00;;;;;;;14.48;2.67;;;0.50;99.90;;;;;;5065849;28;20123;-68
2023/03/28 04:38:31;;;;;;;15.82;3.20;;;0.50;99.90;;;;;;5065122;28;20306;-67
2023/03/28 04:40:57;;;;;;;21.23;3.42;;;0.50;99.90;;;;;;5067618;28;20043;-67
2023/03/28 04:43:25;;;;;;;16.45;2.83;;;0.60;99.90;;;;;;5084870;28;20123;-68
2023/03/28 04:45:54;;;;;;;16.70;2.55;;;0.50;99.90;;;;;;5047912;28;20037;-69
2023/03/28 04:48:21;;;;;;;17.88;2.50;;;0.60;99.90;;;;;;5048345;28;20538;-66
2023/03/28 04:50:47;;;;;;;15.23;2.50;;;0.50;99.90;;;;;;5048224;28;20120;-67
2023/03/28 04:53:14;;;;;;;19.00;3.08;;;0.50;99.90;;;;;;5082013;28;20445;-68
2023/03/28 04:55:42;;;;;;;16.30;2.53;;;0.40;99.90;;;;;;5049233;28;20489;-66
2023/03/28 04:58:09;;;;;;;13.63;3.17;;;0.40;99.90;;;;;;5048521;28;20483;-67
2023/03/28 05:00:35;;;;;;;16.73;3.17;;;0.30;99.90;;;;;;5063368;28;20452;-68
2023/03/28 05:03:04;;;;;;;23.52;2.88;;;0.30;99.90;;;;;;5049285;28;20163;-67
2023/03/28 05:05:30;;;;;;;21.88;3.65;;;0.30;99.90;;;;;;5047862;28;20098;-67
2023/03/28 05:07:57;;;;;;;18.60;2.75;;;0.30;99.90;;;;;;5064907;28;20043;-67
2023/03/28 05:10:23;;;;;;;23.52;3.78;;;0.20;99.90;;;;;;5079384;28;20036;-68
2023/03/28 05:12:49;;;;;;;19.73;2.90;;;0.20;99.90;;;;;;5051372;28;20044;-67
2023/03/28 05:15:15;;;;;;;15.85;2.92;;;0.20;99.90;;;;;;5061940;28;20419;-67
2023/03/28 05:17:41;;;;;;;14.20;2.72;;;0.10;99.90;;;;;;5064938;28;20123;-67
2023/03/28 05:20:10;;;;;;;16.35;2.83;;;0.20;99.90;;;;;;5051700;28;20402;-67
2023/03/28 05:22:36;;;;;;;17.48;3.00;;;0.10;99.90;;;;;;5070832;28;20067;-67
2023/03/28 05:25:05;;;;;;;17.50;2.90;;;0.00;99.90;;;;;;5080515;28;20213;-67
2023/03/28 05:27:31;;;;;;;17.25;2.78;;;0.10;99.90;;;;;;5071760;28;20055;-69
2023/03/28 05:29:57;;;;;;;19.63;3.47;;;0.10;99.90;;;;;;5086569;28;20040;-67
2023/03/28 05:32:23;;;;;;;20.08;3.38;;;0.10;99.90;;;;;;5071492;28;20036;-67
2023/03/28 05:34:48;;;;;;;25.77;3.25;;;0.10;99.90;;;;;;5065497;28;20131;-68
2023/03/28 05:37:14;;;;;;;17.13;3.10;;;0.10;99.90;;;;;;5088595;28;20048;-69
2023/03/28 05:39:40;;;;;;;17.98;3.72;;;0.20;99.90;;;;;;5066374;28;20063;-65
2023/03/28 05:42:07;;;;;;;15.93;3.72;;;0.20;99.90;;;;;;5071956;28;20040;-65
2023/03/28 05:44:33;;;;;;;18.30;2.80;;;0.20;99.90;;;;;;5084335;28;20151;-67
2023/03/28 05:46:59;;;;;;;17.92;2.63;;;0.30;99.90;;;;;;5083533;28;20536;-65
2023/03/28 05:49:25;;;;;;;18.42;3.58;;;0.30;99.90;;;;;;5072169;28;20465;-67
2023/03/28 05:51:50;;;;;;;11.63;3.22;;;0.40;99.90;;;;;;5064533;28;20039;-66
2023/03/28 05:54:16;;;;;;;20.02;2.97;;;0.40;99.90;;;;;;5066361;28;20047;-65
2023/03/28 05:56:42;;;;;;;22.23;3.80;;;0.50;99.90;;;;;;5067533;28;20059;-66
2023/03/28 05:59:08;;;;;;;17.38;2.70;;;0.60;99.90;;;;;;5061004;28;20458;-66
2023/03/28 06:01:35;;;;;;;20.90;3.30;;;0.70;99.90;;;;;;5085152;28;20691;-66
2023/03/28 06:04:02;;;;;;;16.05;3.65;;;0.90;99.90;;;;;;5066029;28;20093;-66
2023/03/28 06:06:28;;;;;;;19.42;3.10;;;1.10;99.90;;;;;;5063585;28;20431;-66
2023/03/28 06:08:54;;;;;;;12.73;2.90;;;1.30;99.90;;;;;;5067517;28;20047;-67
2023/03/28 06:11:20;;;;;;;17.17;3.38;;;1.60;99.90;;;;;;5050744;28;20044;-66
2023/03/28 06:13:45;;;;;;;20.25;3.08;;;1.80;99.90;;;;;;5067647;28;20476;-66
2023/03/28 06:16:11;;;;;;;17.23;2.83;;;2.30;99.90;;;;;;5065848;28;20041;-68
2023/03/28 06:18:37;;;;;;;14.75;3.05;;;2.80;99.90;;;;;;5067124;28;20525;-67
2023/03/28 06:21:03;;;;;;;19.08;3.10;;;3.20;99.90;;;;;;5057423;28;20177;-65
2023/03/28 06:23:29;;;;;;;10.98;2.83;;;3.60;99.90;;;;;;5070051;28;20075;-66
2023/03/28 06:25:55;;;;;;;15.60;3.08;;;3.90;99.90;;;;;;5049550;28;20047;-66
2023/03/28 06:28:21;;;;;;;20.50;3.20;;;4.00;99.90;;;;;;5066958;28;20041;-66
2023/03/28 06:30:48;;;;;;;16.80;3.30;;;4.10;99.90;;;;;;5063783;28;20036;-67
2023/03/28 06:33:14;;;;;;;18.75;3.33;;;4.50;99.90;;;;;;5068449;28;20048;-66
2023/03/28 06:35:40;;;;;;;17.17;2.75;;;5.00;99.90;;;;;;5066554;28;20048;-67
2023/03/28 06:38:05;;;;;;;18.15;4.32;;;4.90;99.90;;;;;;5083700;28;20036;-66
2023/03/28 06:40:31;;;;;;;12.63;3.13;;;4.60;99.90;;;;;;5065943;28;20062;-66
2023/03/28 06:42:57;;;;;;;17.25;3.10;;;4.20;99.90;;;;;;5066467;28;20045;-67
2023/03/28 06:45:23;;;;;;;12.50;2.97;;;4.00;99.90;;;;;;5063953;28;20499;-67
2023/03/28 06:47:49;;;;;;;20.70;3.22;;;3.80;99.90;;;;;;5065942;28;20060;-66
2023/03/28 06:50:15;;;;;;;18.38;2.97;;;3.70;99.90;;;;;;5066323;28;20048;-67
2023/03/28 06:52:41;;;;;;;17.45;2.97;;;3.50;99.90;;;;;;5049565;28;20032;-66
2023/03/28 06:55:07;;;;;;;15.73;2.67;;;3.40;99.90;;;;;;5056515;28;20051;-67
2023/03/28 06:57:33;;;;;;;10.57;2.97;;;3.40;99.90;;;;;;5049768;28;20395;-66
2023/03/28 06:59:59;;;;;;;14.43;3.22;;;3.30;99.90;;;;;;5054277;28;20047;-65
2023/03/28 07:02:25;;;;;;;12.20;3.22;;;3.30;99.90;;;;;;5066447;28;20714;-66
2023/03/28 07:04:51;;;;;;;12.52;3.10;;;3.30;99.90;;;;;;5049344;28;20032;-66
2023/03/28 07:07:16;;;;;;;19.60;3.95;;;3.40;99.90;;;;;;5066301;28;20052;-68
2023/03/28 07:09:42;;;;;;;14.20;2.95;;;3.40;99.90;;;;;;5049339;28;20040;-66
2023/03/28 07:12:08;;;;;;;16.42;3.25;;;3.40;99.90;;;;;;5049251;28;20055;-67
2023/03/28 07:14:34;;;;;;;18.45;3.47;;;3.50;99.90;;;;;;5064786;28;20067;-65
2023/03/28 07:17:00;;;;;;;12.18;2.63;;;3.60;99.90;;;;;;5064986;28;20041;-65
2023/03/28 07:19:26;;;;;;;20.00;2.90;;;3.60;99.90;;;;;;5065445;28;20110;-66
2023/03/28 07:21:52;;;;;;;17.77;2.95;;;3.70;99.90;;;;;;5066256;28;20051;-66
2023/03/28 07:24:18;;;;;;;18.33;2.75;;;3.90;99.90;;;;;;5060015;28;20063;-65
2023/03/28 07:26:44;;;;;;;17.00;3.25;;;4.00;99.90;;;;;;5085919;28;20051;-65
2023/03/28 07:29:10;;;;;;;15.18;3.17;;;4.10;99.90;;;;;;5056527;28;20033;-65
2023/03/28 07:31:36;;;;;;;16.75;2.65;;;4.10;99.90;;;;;;5048256;28;20110;-66
2023/03/28 07:34:02;;;;;;;17.90;2.92;;;4.20;99.90;;;;;;5049013;28;20087;-66
2023/03/28 07:36:28;;;;;;;15.57;3.17;;;4.30;99.90;;;;;;5065200;28;20127;-67
2023/03/28 07:38:54;;;;;;;16.27;2.90;;;4.40;99.90;;;;;;5067591;28;22229;-65
2023/03/28 07:41:21;;;;;;;18.58;4.40;;;4.50;99.90;;;;;;5068892;28;20096;-66
2023/03/28 07:43:47;;;;;;;13.70;2.78;;;4.70;99.90;;;;;;5085705;28;20051;-66
2023/03/28 07:46:14;;;;;;;19.63;4.35;;;5.20;99.90;;;;;;5047141;28;20052;-66
2023/03/28 07:48:42;;;;;;;15.98;2.95;;;5.70;99.90;;;;;;5049634;28;20101;-66
2023/03/28 07:51:09;;;;;;;12.52;2.40;;;6.10;99.90;;;;;;5048888;28;20040;-67
2023/03/28 07:53:39;;;;;;;9.02;2.45;;;6.80;99.90;;;;;;5064946;28;20545;-66
2023/03/28 07:56:10;;;;;;;13.48;2.50;;;7.20;99.90;;;;;;5047849;28;20056;-66
2023/03/28 07:58:40;;;;;;;18.60;2.65;;;7.40;99.90;;;;;;5066035;28;20059;-67
2023/03/28 08:01:08;;;;;;;14.40;3.03;;;7.90;99.90;;;;;;5061932;28;20064;-69
2023/03/28 08:03:34;;;;;;;10.73;2.08;;;8.00;99.90;;;;;;5060236;28;20500;-67
2023/03/28 08:06:05;;;;;;;15.20;2.17;;;8.00;98.90;;;;;;5048311;28;20040;-66
2023/03/28 08:08:31;;;;;;;15.07;2.38;;;8.20;98.60;;;;;;5065088;28;20044;-66
2023/03/28 08:10:57;;;;;;;14.15;2.10;;;8.50;98.20;;;;;;5083179;28;20044;-65
2023/03/28 08:13:24;;;;;;;10.85;1.95;;;8.90;97.20;;;;;;5059586;28;20087;-64
2023/03/28 08:15:51;;;;;;;15.50;2.03;;;9.40;95.30;;;;;;5045784;28;20112;-66
2023/03/28 08:18:20;;;;;;;9.90;1.83;;;9.50;94.70;;;;;;5048802;28;20460;-65
2023/03/28 08:20:47;;;;;;;10.32;2.15;;;10.00;95.00;;;;;;5064869;28;20201;-66
2023/03/28 08:23:13;;;;;;;10.77;1.80;;;9.60;92.20;;;;;;5047844;28;20515;-68
2023/03/28 08:25:38;;;;;;;13.07;2.00;;;9.50;91.80;;;;;;5060084;28;20044;-65
2023/03/28 08:28:05;;;;;;;14.43;2.33;;;9.60;92.90;;;;;;5081195;28;20036;-62
2023/03/28 08:30:31;;;;;;;9.82;1.67;;;9.20;91.80;;;;;;5045746;28;20097;-71
2023/03/28 08:32:57;;;;;;;13.38;2.00;;;8.70;92.30;;;;;;5047614;28;20032;-65
2023/03/28 08:35:22;;;;;;;5.82;1.63;;;8.60;92.80;;;;;;5064947;28;20679;-68
2023/03/28 08:37:50;;;;;;;12.95;1.88;;;8.90;93.60;;;;;;5081141;28;20044;-67
2023/03/28 08:40:19;;;;;;;9.70;2.00;;;8.60;92.30;;;;;;5064586;28;20106;-66
2023/03/28 08:43:17;;;;;;;9.93;2.33;;;8.40;92.20;;;;;;5081626;28;20036;-66
2023/03/28 08:45:53;;;;;;;11.93;1.88;;;8.10;93.70;;;;;;5046671;28;20074;-66
2023/03/28 08:48:53;;;;;;;13.38;1.90;;;8.00;92.70;;;;;;5064909;28;20044;-68
2023/03/28 08:51:26;;;;;;;10.77;1.85;;;7.90;92.90;;;;;;5063928;28;20056;-70
2023/03/28 08:54:17;;;;;;;9.27;1.60;;;7.70;92.40;;;;;;5048778;28;20133;-65
2023/03/28 08:56:52;;;;;;;8.07;1.63;;;7.50;94.70;;;;;;5067843;28;20078;-65
2023/03/28 08:59:40;;;;;;;12.32;1.52;;;7.50;92.40;;;;;;5051061;28;20036;-66
2023/03/28 09:02:17;;;;;;;8.15;1.45;;;7.50;92.60;;;;;;5067782;28;20518;-66
2023/03/28 09:04:44;;;;;;;11.10;1.58;;;7.50;91.40;;;;;;5069976;28;20376;-68
2023/03/28 09:07:33;;;;;;;9.65;1.63;;;7.60;92.00;;;;;;5051271;28;20048;-65
2023/03/28 09:10:08;;;;;;;6.78;1.50;;;7.40;91.20;;;;;;5051282;28;20048;-69
2023/03/28 09:13:09;;;;;;;9.77;1.70;;;7.30;92.70;;;;;;5051793;28;20036;-66
2023/03/28 09:15:56;;;;;;;9.45;1.90;;;7.00;91.40;;;;;;5048744;28;20056;-67
2023/03/28 09:18:46;;;;;;;9.70;2.22;;;7.10;93.00;;;;;;5051067;28;20051;-67
2023/03/28 09:21:26;;;;;;;6.40;1.10;;;7.20;92.50;;;;;;5051847;28;20415;-66
2023/03/28 09:24:01;;;;;;;9.63;1.90;;;7.40;91.80;;;;;;5067979;28;20085;-65
2023/03/28 09:26:38;;;;;;;6.13;1.42;;;7.30;90.40;;;;;;5050116;28;20098;-65
2023/03/28 09:29:09;;;;;;;8.38;1.45;;;7.20;90.20;;;;;;5082883;28;20052;-65
2023/03/28 09:31:43;;;;;;;8.55;1.58;;;7.40;91.00;;;;;;5049766;28;20136;-65
2023/03/28 09:34:22;;;;;;;8.20;1.60;;;7.50;90.70;;;;;;5051131;28;20044;-69
2023/03/28 09:36:52;;;;;;;7.93;1.40;;;7.70;88.60;;;;;;5067888;28;20047;-68
2023/03/28 09:39:38;;;;;;;6.25;1.77;;;8.10;90.30;;;;;;5051044;28;20113;-65
2023/03/28 09:42:36;;;;;;;6.13;1.30;;;8.20;86.60;;;;;;5067898;28;20404;-65
2023/03/28 09:45:21;;;;;;;7.75;1.45;;;8.10;86.80;;;;;;5054557;28;20067;-66
2023/03/28 09:47:47;;;;;;;5.40;1.20;;;8.00;84.20;;;;;;5067368;28;20503;-67
2023/03/28 09:50:15;;;;;;;10.73;1.58;;;8.10;79.50;;;;;;5051335;28;20044;-66
2023/03/28 09:52:42;;;;;;;6.53;1.30;;;8.10;80.20;;;;;;5050822;28;20499;-66
2023/03/28 09:55:26;;;;;;;9.40;1.40;;;7.90;78.00;;;;;;5050871;28;20380;-67
2023/03/28 09:58:00;;;;;;;;;;;7.90;77.90;;;;;;5051399;28;20051;-67
2023/03/28 10:00:26;;;;;;;7.28;1.65;;;8.00;69.90;;;;;;5050199;28;19920;-68
2023/03/28 10:02:52;;;;;;;7.25;1.30;;;7.90;72.00;;;;;;5052156;28;20094;-65
2023/03/28 10:05:38;;;;;;;7.95;1.60;;;8.00;74.90;;;;;;5086246;28;20490;-67
2023/03/28 10:08:21;;;;;;;6.00;1.15;;;8.30;66.40;;;;;;5070640;28;20077;-67
2023/03/28 10:10:55;;;;;;;5.65;1.40;;;8.30;65.30;;;;;;5070100;28;20036;-66
2023/03/28 10:13:22;;;;;;;7.53;1.80;;;8.70;70.20;;;;;;5071045;28;20040;-72
2023/03/28 10:15:52;;;;;;;6.68;1.40;;;9.00;71.50;;;;;;5072708;28;20041;-70
2023/03/28 10:18:26;;;;;;;5.78;1.33;;;9.40;74.80;;;;;;5051289;28;20123;-70
2023/03/28 10:20:52;;;;;;;7.63;1.42;;;9.60;70.00;;;;;;5051115;28;20045;-67
2023/03/28 10:23:21;;;;;;;7.28;1.38;;;10.00;71.10;;;;;;5087280;28;20048;-67
2023/03/28 10:25:51;;;;;;;7.18;1.42;;;10.30;68.10;;;;;;5065947;28;20040;-74
2023/03/28 10:28:31;;;;;;;8.65;1.60;;;10.70;68.80;;;;;;5066923;28;20071;-66
2023/03/28 10:31:00;;;;;;;5.80;1.63;;;10.50;62.10;;;;;;5066651;28;20078;-66
2023/03/28 10:33:39;;;;;;;5.93;1.50;;;10.20;63.60;;;;;;5051522;28;20495;-67
2023/03/28 10:36:09;;;;;;;7.65;1.60;;;9.90;66.60;;;;;;5050374;28;20601;-64
2023/03/28 10:38:42;;;;;;;11.60;2.28;;;9.40;66.00;;;;;;5067584;28;20055;-65
2023/03/28 10:41:09;;;;;;;8.47;1.83;;;9.20;69.40;;;;;;5066570;28;20044;-65
2023/03/28 10:43:40;;;;;;;9.05;1.52;;;8.90;71.80;;;;;;5066861;28;20529;-69
2023/03/28 10:46:30;;;;;;;9.75;1.40;;;8.60;72.50;;;;;;5066356;28;20142;-66
2023/03/28 10:49:00;;;;;;;12.35;1.70;;;8.30;74.90;;;;;;5075392;28;20040;-70
2023/03/28 10:51:30;;;;;;;4.68;1.38;;;7.90;78.50;;;;;;5069355;28;20530;-68
2023/03/28 10:54:31;;;;;;;8.05;1.90;;;7.60;81.60;;;;;;5067122;28;20486;-64
2023/03/28 10:57:01;;;;;;;7.25;1.60;;;7.40;84.20;;;;;;5065889;28;20052;-64
2023/03/28 10:59:34;;;;;;;9.60;2.05;;;7.20;84.80;;;;;;5066029;28;20043;-72
2023/03/28 11:02:06;;;;;;;10.05;1.83;;;7.30;87.50;;;;;;5049094;28;20063;-68
2023/03/28 11:04:56;;;;;;;9.57;1.45;;;7.30;86.90;;;;;;5049685;28;20575;-73
2023/03/28 11:07:58;;;;;;;6.63;1.75;;;7.30;81.90;;;;;;5049365;28;20130;-68
2023/03/28 11:10:29;;;;;;;4.95;1.50;;;7.40;81.30;;;;;;5049113;28;20040;-70
2023/03/28 11:13:22;;;;;;;8.15;1.75;;;7.60;80.90;;;;;;5066996;28;20036;-67
2023/03/28 11:16:21;;;;;;;7.10;1.40;;;8.00;80.40;;;;;;5066069;28;20068;-70
2023/03/28 11:19:04;;;;;;;6.57;1.88;;;8.30;74.10;;;;;;5035747;28;20514;-67
2023/03/28 11:22:04;;;;;;;6.65;1.60;;;8.50;78.90;;;;;;5066531;28;20048;-66
2023/03/28 11:24:56;;;;;;;8.50;1.40;;;8.60;74.60;;;;;;5065228;28;20087;-64
2023/03/28 11:27:57;;;;;;;7.97;1.70;;;8.80;72.20;;;;;;5049451;28;20067;-68
2023/03/28 11:30:31;;;;;;;7.43;1.70;;;8.90;71.70;;;;;;5057731;28;20049;-67
2023/03/28 11:33:10;;;;;;;9.55;1.60;;;8.90;69.00;;;;;;5049293;28;20531;-67
2023/03/28 11:35:49;;;;;;;8.40;1.73;;;8.90;67.80;;;;;;5048838;28;20048;-68
2023/03/28 11:38:24;;;;;;;10.75;1.83;;;9.20;70.50;;;;;;5072285;28;20048;-66
2023/03/28 11:41:14;;;;;;;6.18;1.92;;;9.80;72.70;;;;;;5063339;28;20044;-66
2023/03/28 11:43:44;;;;;;;6.72;1.90;;;10.40;66.30;;;;;;5049036;28;20123;-67
2023/03/28 11:46:19;;;;;;;10.32;2.10;;;10.60;64.30;;;;;;5062175;28;20048;-67
2023/03/28 11:49:07;;;;;;;8.23;2.20;;;10.90;66.60;;;;;;5065566;28;20513;-67
2023/03/28 11:51:45;;;;;;;8.27;1.92;;;11.20;66.40;;;;;;5047875;28;20044;-65
2023/03/28 11:54:23;;;;;;;6.55;2.10;;;11.30;63.60;;;;;;5064641;28;20044;-64
2023/03/28 11:57:01;;;;;;;6.88;1.90;;;11.40;59.50;;;;;;5064805;28;20052;-64
2023/03/28 11:59:53;;;;;;;7.03;1.90;;;11.80;61.40;;;;;;5064325;28;20051;-67
2023/03/28 12:02:40;;;;;;;8.10;2.20;;;12.10;59.20;;;;;;5065475;28;20037;-70
2023/03/28 12:05:47;;;;;;;10.60;2.58;;;12.20;54.40;;;;;;5048651;28;20036;-68
2023/03/28 12:08:31;;;;;;;7.10;2.10;;;11.90;56.40;;;;;;5048362;28;20084;-68
2023/03/28 12:11:04;;;;;;;7.50;1.97;;;11.60;58.20;;;;;;5048096;28;20036;-64
2023/03/28 12:13:43;;;;;;;9.70;2.40;;;11.20;56.60;;;;;;5065111;28;20484;-66
2023/03/28 12:16:19;;;;;;;6.78;2.25;;;10.80;57.30;;;;;;5082109;28;20040;-67
2023/03/28 12:18:57;;;;;;;11.35;2.55;;;10.90;58.30;;;;;;5059774;28;20044;-66
2023/03/28 12:21:45;;;;;;;8.45;2.22;;;11.00;61.30;;;;;;5052888;28;20043;-66
2023/03/28 12:24:17;;;;;;;10.23;2.50;;;11.20;61.10;;;;;;5075946;28;20090;-64
2023/03/28 12:27:08;;;;;;;8.05;2.20;;;11.10;58.50;;;;;;5064682;28;20579;-68
2023/03/28 12:29:44;;;;;;;6.53;2.33;;;11.20;58.70;;;;;;5063869;28;20044;-66
2023/03/28 12:32:41;;;;;;;9.07;2.28;;;11.40;61.00;;;;;;5048052;28;20109;-69
2023/03/28 12:35:31;;;;;;;9.35;2.50;;;11.70;61.30;;;;;;5062744;28;20032;-66
2023/03/28 12:38:00;;;;;;;10.45;2.67;;;11.70;59.10;;;;;;5064750;28;20499;-67
2023/03/28 12:40:49;;;;;;;7.75;1.95;;;11.50;58.40;;;;;;5064049;28;20051;-67
2023/03/28 12:43:20;;;;;;;8.07;2.20;;;11.50;57.80;;;;;;5065094;28;20483;-68
2023/03/28 12:45:51;;;;;;;7.75;2.10;;;11.40;58.00;;;;;;5047795;28;20523;-66
2023/03/28 12:48:41;;;;;;;7.90;2.25;;;11.10;56.80;;;;;;5050867;28;20036;-68
2023/03/28 12:51:16;;;;;;;7.53;2.20;;;11.10;57.70;;;;;;5067943;28;20036;-68
2023/03/28 12:53:44;;;;;;;10.23;2.13;;;11.10;58.30;;;;;;5084772;28;20399;-65
2023/03/28 12:56:14;;;;;;;7.57;2.22;;;11.00;55.70;;;;;;5065991;28;20051;-68
2023/03/28 12:58:41;;;;;;;6.40;2.03;;;10.90;58.20;;;;;;5067438;28;20083;-68
2023/03/28 13:01:07;;;;;;;9.50;2.42;;;10.90;58.90;;;;;;5053920;28;20761;-68
2023/03/28 13:03:51;;;;;;;6.72;2.20;;;10.80;57.00;;;;;;5065669;28;20071;-68
2023/03/28 13:06:46;;;;;;;10.13;2.65;;;10.60;56.40;;;;;;5083563;28;20044;-65
2023/03/28 13:09:26;;;;;;;7.95;2.17;;;10.80;58.40;;;;;;5063940;28;20036;-67
2023/03/28 13:12:30;;;;;;;8.73;2.20;;;10.90;58.70;;;;;;5058623;28;20057;-67
2023/03/28 13:15:08;;;;;;;8.95;2.15;;;10.90;59.00;;;;;;5073957;28;20060;-65
2023/03/28 13:17:36;;;;;;;8.25;2.33;;;10.70;57.80;;;;;;5081175;28;20044;-63